createdAt,value
2023-02-03T00:00:07.193Z,78.40
2023-02-03T00:03:13.184Z,78.40
2023-02-03T00:06:15.324Z,78.60
2023-02-03T00:09:17.391Z,78.90
2023-02-03T00:12:19.436Z,78.90
2023-02-03T00:15:21.451Z,79.00
2023-02-03T00:18:23.395Z,79.40
2023-02-03T00:21:25.319Z,79.40
2023-02-03T00:24:27.392Z,79.50
2023-02-03T00:27:29.227Z,79.40
2023-02-03T00:30:33.877Z,79.60
2023-02-03T00:33:35.764Z,79.70
2023-02-03T00:36:37.661Z,79.50
2023-02-03T00:39:39.780Z,79.40
2023-02-03T00:42:41.658Z,79.50
2023-02-03T00:45:43.519Z,79.20
2023-02-03T00:48:45.410Z,79.20
2023-02-03T00:51:48.149Z,79.40
2023-02-03T00:54:50.061Z,79.10
2023-02-03T00:57:52.167Z,79.20
2023-02-03T01:00:57.950Z,78.90
2023-02-03T01:04:00.513Z,79.10
2023-02-03T01:07:02.487Z,79.30
2023-02-03T01:10:05.873Z,79.30
2023-02-03T01:13:08.472Z,79.60
2023-02-03T01:16:12.622Z,79.70
2023-02-03T01:19:14.537Z,80.10
2023-02-03T01:22:16.523Z,80.70
2023-02-03T01:25:18.365Z,80.80
2023-02-03T01:28:21.683Z,81.00
2023-02-03T01:31:31.004Z,80.90
2023-02-03T01:34:33.171Z,81.40
2023-02-03T01:37:35.135Z,81.50
2023-02-03T01:40:45.933Z,81.80
2023-02-03T01:43:51.581Z,82.00
2023-02-03T01:46:54.245Z,81.90
2023-02-03T01:50:26.938Z,81.70
2023-02-03T01:53:29.528Z,82.40
2023-02-03T01:56:35.237Z,83.20
2023-02-03T01:59:37.369Z,83.60
2023-02-03T02:02:39.953Z,84.00
2023-02-03T02:05:56.768Z,83.50
2023-02-03T02:08:59.821Z,83.10
2023-02-03T02:12:01.682Z,83.20
2023-02-03T02:15:04.746Z,82.80
2023-02-03T02:18:23.969Z,83.30
2023-02-03T02:21:43.956Z,82.60
2023-02-03T02:24:55.286Z,82.40
2023-02-03T02:28:28.340Z,82.40
2023-02-03T02:31:46.345Z,82.30
2023-02-03T02:34:59.519Z,82.20
2023-02-03T02:38:12.452Z,82.40
2023-02-03T02:41:27.877Z,82.30
2023-02-03T02:44:35.511Z,82.40
2023-02-03T02:47:38.644Z,82.70
2023-02-03T02:50:46.691Z,82.40
2023-02-03T02:53:57.327Z,82.80
2023-02-03T02:57:03.220Z,82.60
2023-02-03T03:00:08.091Z,82.60
2023-02-03T03:03:19.335Z,82.70
2023-02-03T03:06:23.633Z,82.60
2023-02-03T03:09:32.304Z,82.70
2023-02-03T03:12:40.696Z,82.80
2023-02-03T03:15:44.787Z,82.70
2023-02-03T03:18:53.453Z,82.70
2023-02-03T03:22:01.209Z,82.70
2023-02-03T03:25:18.853Z,82.50
2023-02-03T03:28:28.536Z,82.80
2023-02-03T03:31:31.055Z,82.70
2023-02-03T03:34:33.482Z,82.80
2023-02-03T03:37:56.116Z,82.80
2023-02-03T03:41:12.195Z,82.70
2023-02-03T03:44:17.102Z,82.80
2023-02-03T03:47:34.128Z,82.70
2023-02-03T03:50:42.258Z,82.80
2023-02-03T03:53:47.612Z,82.70
2023-02-03T03:57:04.352Z,82.60
2023-02-03T04:00:09.417Z,82.40
2023-02-03T04:03:23.887Z,82.40
2023-02-03T04:06:25.963Z,82.50
2023-02-03T04:09:27.889Z,82.60
2023-02-03T04:12:29.986Z,82.40
2023-02-03T04:15:34.175Z,82.70
2023-02-03T04:18:36.033Z,83.00
2023-02-03T04:21:37.911Z,83.70
2023-02-03T04:24:39.781Z,84.60
2023-02-03T04:27:43.883Z,85.20
2023-02-03T04:30:46.041Z,85.00
2023-02-03T04:33:48.007Z,85.30
2023-02-03T04:36:50.055Z,85.10
2023-02-03T04:39:52.245Z,85.20
2023-02-03T04:42:54.213Z,85.10
2023-02-03T04:45:56.279Z,84.90
2023-02-03T04:48:58.416Z,84.60
2023-02-03T04:52:00.280Z,84.60
2023-02-03T04:55:02.184Z,84.50
2023-02-03T04:58:04.106Z,84.40
2023-02-03T05:01:09.149Z,84.20
2023-02-03T05:04:11.247Z,84.30
2023-02-03T05:07:13.112Z,84.20
2023-02-03T05:10:15.482Z,84.10
2023-02-03T05:13:17.381Z,84.10
2023-02-03T05:16:19.445Z,83.90
2023-02-03T05:19:21.390Z,83.90
2023-02-03T05:22:23.409Z,83.80
2023-02-03T05:25:25.311Z,83.80
2023-02-03T05:28:27.291Z,83.20
2023-02-03T05:31:29.259Z,83.20
2023-02-03T05:34:31.183Z,83.20
2023-02-03T05:37:33.075Z,82.80
2023-02-03T05:40:35.228Z,82.70
2023-02-03T05:43:37.982Z,82.40
2023-02-03T05:46:41.233Z,82.50
2023-02-03T05:49:43.127Z,82.20
2023-02-03T05:52:45.064Z,82.80
2023-02-03T05:55:46.994Z,82.60
2023-02-03T05:58:49.076Z,82.30
2023-02-03T06:01:50.948Z,82.10
2023-02-03T06:04:52.895Z,82.60
2023-02-03T06:07:55.229Z,82.50
2023-02-03T06:11:00.759Z,82.40
2023-02-03T06:14:03.645Z,82.40
2023-02-03T06:17:07.313Z,82.80
2023-02-03T06:20:11.225Z,82.60
2023-02-03T06:23:13.175Z,82.70
2023-02-03T06:26:15.116Z,82.50
2023-02-03T06:29:17.139Z,82.70
2023-02-03T06:32:19.355Z,83.00
2023-02-03T06:35:21.376Z,83.10
2023-02-03T06:38:23.678Z,83.90
2023-02-03T06:41:25.638Z,84.40
2023-02-03T06:44:29.783Z,84.50
2023-02-03T06:47:31.690Z,84.30
2023-02-03T06:50:34.357Z,84.00
2023-02-03T06:53:36.297Z,84.20
2023-02-03T06:56:38.397Z,83.90
2023-02-03T06:59:40.467Z,84.30
2023-02-03T07:02:42.544Z,83.90
2023-02-03T07:05:44.475Z,84.00
2023-02-03T07:08:46.658Z,84.10
2023-02-03T07:11:48.580Z,84.20
2023-02-03T07:14:50.454Z,84.00
2023-02-03T07:17:52.387Z,84.30
2023-02-03T07:20:54.253Z,84.70
2023-02-03T07:23:56.358Z,84.90
2023-02-03T07:26:58.427Z,85.00
2023-02-03T07:30:00.352Z,85.00
2023-02-03T07:33:02.662Z,84.90
2023-02-03T07:36:05.541Z,84.70
2023-02-03T07:39:07.385Z,84.40
2023-02-03T07:42:09.297Z,84.60
2023-02-03T07:45:18.374Z,84.50
2023-02-03T07:48:20.379Z,84.50
2023-02-03T07:51:22.351Z,84.40
2023-02-03T07:54:24.244Z,84.70
2023-02-03T07:57:26.504Z,84.90
2023-02-03T08:00:28.754Z,85.00
2023-02-03T08:03:30.992Z,85.00
2023-02-03T08:06:33.219Z,85.40
2023-02-03T08:09:35.239Z,85.20
2023-02-03T08:12:37.520Z,85.10
2023-02-03T08:15:39.669Z,85.00
2023-02-03T08:18:41.601Z,84.70
2023-02-03T08:21:45.781Z,84.50
2023-02-03T08:24:48.198Z,84.60
2023-02-03T08:27:50.247Z,84.20
2023-02-03T08:30:52.361Z,83.90
2023-02-03T08:33:54.375Z,83.80
2023-02-03T08:36:56.407Z,83.70
2023-02-03T08:39:59.426Z,83.50
2023-02-03T08:43:01.327Z,83.30
2023-02-03T08:46:05.355Z,83.50
2023-02-03T08:49:07.224Z,83.60
2023-02-03T08:52:12.178Z,83.90
2023-02-03T08:55:14.407Z,83.80
2023-02-03T08:58:16.694Z,83.70
2023-02-03T09:01:19.396Z,83.50
2023-02-03T09:04:21.970Z,83.60
2023-02-03T09:07:23.928Z,83.60
2023-02-03T09:10:26.578Z,83.80
2023-02-03T09:13:28.788Z,83.20
2023-02-03T09:16:30.830Z,83.10
2023-02-03T09:19:35.460Z,83.00
2023-02-03T09:22:38.474Z,82.90
2023-02-03T09:25:40.628Z,83.20
2023-02-03T09:28:42.994Z,83.30
2023-02-03T09:31:45.011Z,83.00
2023-02-03T09:34:49.710Z,83.20
2023-02-03T09:37:51.590Z,83.70
2023-02-03T09:41:10.585Z,84.40
2023-02-03T09:44:24.347Z,84.70
2023-02-03T09:47:34.919Z,84.70
2023-02-03T09:50:38.844Z,85.10
2023-02-03T09:53:48.466Z,84.00
2023-02-03T09:56:53.483Z,83.60
2023-02-03T09:59:59.657Z,83.20
2023-02-03T10:03:07.625Z,83.10
2023-02-03T10:06:21.401Z,82.90
2023-02-03T10:09:26.020Z,83.00
2023-02-03T10:13:09.555Z,83.20
2023-02-03T10:16:28.562Z,83.30
2023-02-03T10:19:43.833Z,83.00
2023-02-03T10:22:59.906Z,82.90
2023-02-03T10:26:06.432Z,83.50
2023-02-03T10:29:34.541Z,83.10
2023-02-03T10:32:36.679Z,83.00
2023-02-03T10:35:50.084Z,83.00
2023-02-03T10:39:00.742Z,82.80
2023-02-03T10:42:05.205Z,82.70
2023-02-03T10:45:11.823Z,82.80
2023-02-03T10:48:17.929Z,82.70
2023-02-03T10:51:35.028Z,82.30
2023-02-03T10:54:37.050Z,81.90
2023-02-03T10:57:39.427Z,81.30
2023-02-03T11:00:42.235Z,81.30
2023-02-03T11:03:53.449Z,81.40
2023-02-03T11:06:58.846Z,81.00
2023-02-03T11:10:00.774Z,80.50
2023-02-03T11:13:25.694Z,79.90
2023-02-03T11:16:27.735Z,80.40
2023-02-03T11:19:29.760Z,80.60
2023-02-03T11:22:34.422Z,80.70
2023-02-03T11:25:36.417Z,80.80
2023-02-03T11:28:42.845Z,80.50
2023-02-03T11:31:51.266Z,80.90
2023-02-03T11:35:03.309Z,80.00
2023-02-03T11:38:05.416Z,79.70
2023-02-03T11:41:15.701Z,80.50
2023-02-03T11:44:22.059Z,80.40
2023-02-03T11:47:24.232Z,80.60
2023-02-03T12:03:51.187Z,80.20
2023-02-03T12:07:20.181Z,80.30
2023-02-03T12:10:38.889Z,79.60
2023-02-03T12:13:55.915Z,79.70
2023-02-03T12:17:16.885Z,79.40
2023-02-03T12:20:18.675Z,79.40
2023-02-03T12:24:02.081Z,79.30
2023-02-03T12:27:24.480Z,78.90
2023-02-03T12:30:33.218Z,78.70
2023-02-03T12:33:42.015Z,79.20
2023-02-03T12:36:49.788Z,79.40
2023-02-03T12:40:04.702Z,79.20
2023-02-03T12:43:34.690Z,79.50
2023-02-03T12:46:44.061Z,79.70
2023-02-03T12:49:50.803Z,79.70
2023-02-03T12:53:18.728Z,80.00
2023-02-03T12:56:30.225Z,79.90
2023-02-03T12:59:34.312Z,80.30
2023-02-03T13:02:48.534Z,80.20
2023-02-03T13:06:04.852Z,80.10
2023-02-03T13:09:45.117Z,80.10
2023-02-03T13:12:53.024Z,80.10
2023-02-03T13:15:57.063Z,80.10
2023-02-03T13:19:04.607Z,80.30
2023-02-03T13:22:12.638Z,80.10
2023-02-03T13:25:40.287Z,80.10
2023-02-03T13:29:07.160Z,80.00
2023-02-03T13:32:24.206Z,80.00
2023-02-03T13:35:57.401Z,80.10
2023-02-03T13:39:37.487Z,79.80
2023-02-03T13:42:45.234Z,80.00
2023-02-03T13:45:51.175Z,80.00
2023-02-03T13:48:54.642Z,80.20
2023-02-03T13:51:57.167Z,80.10
2023-02-03T13:55:00.306Z,80.40
2023-02-03T13:58:21.951Z,80.50
2023-02-03T14:01:28.564Z,80.60
2023-02-03T14:04:30.463Z,80.50
2023-02-03T14:07:39.103Z,80.50
2023-02-03T14:10:41.131Z,80.70
2023-02-03T14:13:43.140Z,80.90
2023-02-03T14:16:48.173Z,80.90
2023-02-03T14:19:50.096Z,80.90
2023-02-03T14:23:00.112Z,81.30
2023-02-03T14:26:02.816Z,81.30
2023-02-03T14:29:06.058Z,81.50
2023-02-03T14:32:13.036Z,81.30
2023-02-03T14:35:18.273Z,81.50
2023-02-03T14:38:21.433Z,81.40
2023-02-03T14:41:59.869Z,81.60
2023-02-03T14:48:54.795Z,81.80
2023-02-03T14:52:11.520Z,81.90
2023-02-03T14:55:30.331Z,81.90
2023-02-03T14:58:41.382Z,82.00
2023-02-03T15:01:48.811Z,82.00
2023-02-03T15:04:52.358Z,82.20
2023-02-03T15:07:54.347Z,82.20
2023-02-03T15:10:56.430Z,82.40
2023-02-03T15:14:27.845Z,82.50
2023-02-03T15:17:36.658Z,82.70
2023-02-03T15:20:41.800Z,82.80
2023-02-03T15:23:45.326Z,82.70
2023-02-03T15:26:50.653Z,83.00
2023-02-03T15:29:53.107Z,83.10
2023-02-03T15:33:07.418Z,83.20
2023-02-03T15:36:20.456Z,83.20
2023-02-03T15:39:30.276Z,83.20
2023-02-03T15:42:51.735Z,83.30
2023-02-03T15:45:58.850Z,83.40
2023-02-03T15:52:24.468Z,84.30
2023-02-03T15:55:55.336Z,84.70
2023-02-03T16:02:17.811Z,84.90
2023-02-03T16:05:27.924Z,84.90
2023-02-03T16:08:39.600Z,85.00
2023-02-03T16:11:41.615Z,85.40
2023-02-03T16:14:50.059Z,85.50
2023-02-03T16:17:56.475Z,85.70
2023-02-03T16:20:58.482Z,85.70
2023-02-03T16:24:00.849Z,85.70
2023-02-03T16:27:25.256Z,85.60
2023-02-03T16:30:27.312Z,85.70
2023-02-03T16:33:32.343Z,85.80
2023-02-03T16:36:39.209Z,85.70
2023-02-03T16:39:42.147Z,85.70
2023-02-03T16:42:44.851Z,85.60
2023-02-03T16:45:57.760Z,85.70
2023-02-03T16:49:00.229Z,85.70
2023-02-03T16:52:08.759Z,85.80
2023-02-03T16:55:11.554Z,86.00
2023-02-03T16:58:13.671Z,86.00
2023-02-03T17:01:15.660Z,85.90
2023-02-03T17:04:17.818Z,85.80
2023-02-03T17:10:29.899Z,85.80
2023-02-03T17:13:36.961Z,85.90
2023-02-03T17:16:39.008Z,86.00
2023-02-03T17:19:44.027Z,85.90
2023-02-03T17:22:46.756Z,86.00
2023-02-03T17:25:55.161Z,85.90
2023-02-03T17:28:57.694Z,85.80
2023-02-03T17:31:59.941Z,85.90
2023-02-03T17:35:09.020Z,85.80
2023-02-03T17:38:13.245Z,85.90
2023-02-03T17:54:26.267Z,85.80
2023-02-03T17:57:28.212Z,85.80
2023-02-03T18:00:30.605Z,85.60
2023-02-03T18:03:32.857Z,85.70
2023-02-03T18:09:42.931Z,85.60
2023-02-03T18:12:45.021Z,85.70
2023-02-03T18:15:56.683Z,85.60
2023-02-03T18:19:00.198Z,85.90
2023-02-03T18:22:02.227Z,86.00
2023-02-03T18:25:04.462Z,86.30
2023-02-03T18:28:08.745Z,86.20
2023-02-03T18:31:14.668Z,86.30
2023-02-03T18:34:21.107Z,86.30
2023-02-03T18:37:23.108Z,86.10
2023-02-03T18:40:25.108Z,86.10
2023-02-03T18:43:27.117Z,86.30
2023-02-03T18:49:45.562Z,86.30
2023-02-03T18:52:47.619Z,86.30
2023-02-03T18:55:49.626Z,86.30
2023-02-03T18:58:51.926Z,86.30
2023-02-03T19:01:54.221Z,86.40
2023-02-03T19:04:58.454Z,86.40
2023-02-03T19:08:13.456Z,86.50
2023-02-03T19:11:15.641Z,86.50
2023-02-03T19:14:17.626Z,86.60
2023-02-03T19:17:19.680Z,86.60
2023-02-03T19:20:21.749Z,86.50
2023-02-03T19:23:29.807Z,86.60
2023-02-03T19:26:32.376Z,86.70
2023-02-03T19:29:34.354Z,86.70
2023-02-03T19:32:42.787Z,86.70
2023-02-03T19:35:44.762Z,86.70
2023-02-03T19:38:46.604Z,86.80
2023-02-03T19:41:55.009Z,86.60
2023-02-03T19:44:56.895Z,86.40
2023-02-03T19:47:58.825Z,86.20
2023-02-03T19:51:00.947Z,86.30
2023-02-03T19:54:03.624Z,86.50
2023-02-03T19:57:05.645Z,86.70
2023-02-03T20:00:11.300Z,87.00
2023-02-03T20:03:16.384Z,87.00
2023-02-03T20:06:18.440Z,87.00
2023-02-03T20:09:27.122Z,87.10
2023-02-03T20:15:36.032Z,87.50
2023-02-03T20:18:38.428Z,87.90
2023-02-03T20:21:47.070Z,88.00
2023-02-03T20:24:49.033Z,88.00
2023-02-03T20:27:51.029Z,88.10
2023-02-03T20:30:55.745Z,88.40
2023-02-03T20:33:57.981Z,88.30
2023-02-03T20:36:59.897Z,88.10
2023-02-03T20:40:02.230Z,88.10
2023-02-03T20:43:30.215Z,88.00
2023-02-03T20:46:32.081Z,87.90
2023-02-03T20:49:34.008Z,88.00
2023-02-03T20:52:35.928Z,87.50
2023-02-03T20:55:38.002Z,87.50
2023-02-03T20:58:40.908Z,87.40
2023-02-03T21:01:42.933Z,87.20
2023-02-03T21:04:45.484Z,87.20
2023-02-03T21:07:47.429Z,86.90
2023-02-03T21:10:49.382Z,86.90
2023-02-03T21:13:51.318Z,87.00
2023-02-03T21:16:59.889Z,86.80
2023-02-03T21:20:01.800Z,86.60
2023-02-03T21:23:09.746Z,86.40
2023-02-03T21:26:16.910Z,86.50
2023-02-03T21:29:29.946Z,86.60
2023-02-03T21:32:41.361Z,86.40
2023-02-03T21:35:43.261Z,86.30
2023-02-03T21:38:49.551Z,86.30
2023-02-03T21:41:51.499Z,86.20
2023-02-03T21:48:01.320Z,86.30
2023-02-03T21:51:21.331Z,86.10
2023-02-03T21:54:28.690Z,86.10
2023-02-03T21:57:32.075Z,86.20
2023-02-03T22:00:40.429Z,86.10
2023-02-03T22:03:53.102Z,86.30
2023-02-03T22:06:55.580Z,86.50
2023-02-03T22:09:57.493Z,86.50
2023-02-03T22:12:59.430Z,86.40
2023-02-03T22:16:01.497Z,86.20
2023-02-03T22:19:03.398Z,86.30
2023-02-03T22:22:05.400Z,86.40
2023-02-03T22:25:07.912Z,86.40
2023-02-03T22:28:09.839Z,86.40
2023-02-03T22:31:12.933Z,86.40
2023-02-03T22:34:15.003Z,86.40
2023-02-03T22:37:17.001Z,86.40
2023-02-03T22:40:23.728Z,86.40
2023-02-03T22:43:26.718Z,86.60
2023-02-03T22:46:28.717Z,86.50
2023-02-03T22:49:30.671Z,86.50
2023-02-03T22:52:32.885Z,86.60
2023-02-03T22:55:35.847Z,86.30
2023-02-03T22:58:37.764Z,86.10
2023-02-03T23:01:39.669Z,86.20
2023-02-03T23:04:41.632Z,85.90
2023-02-03T23:07:44.301Z,86.10
2023-02-03T23:10:46.599Z,86.10
2023-02-03T23:13:49.130Z,86.10
2023-02-03T23:16:51.053Z,86.20
2023-02-03T23:19:52.968Z,86.20
2023-02-03T23:22:54.836Z,86.50
2023-02-03T23:25:56.744Z,86.80
2023-02-03T23:28:58.723Z,87.20
2023-02-03T23:32:00.668Z,87.70
2023-02-03T23:35:02.965Z,87.70
2023-02-03T23:38:04.907Z,87.50
2023-02-03T23:41:06.852Z,87.60
2023-02-03T23:44:08.773Z,87.70
2023-02-03T23:47:10.728Z,87.60
2023-02-03T23:50:18.254Z,87.70
2023-02-03T23:53:20.228Z,87.60
2023-02-03T23:56:22.114Z,87.70
2023-02-03T23:59:24.821Z,87.70
